createdAt,value
2023-07-31T00:02:12.556Z,99658.31
2023-07-31T00:04:39.764Z,99653.91
2023-07-31T00:07:07.546Z,99659.22
2023-07-31T00:09:35.198Z,99660.97
2023-07-31T00:12:02.814Z,99657.41
2023-07-31T00:14:30.095Z,99644.06
2023-07-31T00:16:57.487Z,99652.94
2023-07-31T00:19:24.712Z,99669.84
2023-07-31T00:21:52.016Z,99661.84
2023-07-31T00:24:19.318Z,99665.38
2023-07-31T00:26:46.619Z,99663.53
2023-07-31T00:29:13.845Z,99663.44
2023-07-31T00:31:41.299Z,99670.47
2023-07-31T00:34:08.686Z,99666.88
2023-07-31T00:36:37.061Z,99672.06
2023-07-31T00:39:05.687Z,99671.09
2023-07-31T00:41:32.987Z,99668.44
2023-07-31T00:44:00.475Z,99658.59
2023-07-31T00:46:28.540Z,99663.03
2023-07-31T00:48:57.489Z,99668.47
2023-07-31T00:51:25.911Z,99671.16
2023-07-31T00:53:55.323Z,99677.38
2023-07-31T00:56:24.977Z,99671.19
2023-07-31T00:58:52.416Z,99672.13
2023-07-31T01:01:19.839Z,99664.19
2023-07-31T01:03:47.116Z,99665.09
2023-07-31T01:06:58.924Z,99668.66
2023-07-31T01:09:36.626Z,99665.09
2023-07-31T01:12:05.526Z,99672.28
2023-07-31T01:14:32.788Z,99679.56
2023-07-31T01:17:00.172Z,99673.41
2023-07-31T01:19:28.818Z,99675.16
2023-07-31T01:22:41.656Z,99668.97
2023-07-31T01:25:53.265Z,99660.09
2023-07-31T01:29:23.972Z,99656.56
2023-07-31T01:31:56.629Z,99654.91
2023-07-31T01:34:24.663Z,99656.63
2023-07-31T01:36:52.524Z,99662.00
2023-07-31T01:39:22.023Z,99669.09
2023-07-31T01:41:49.274Z,99664.69
2023-07-31T01:44:16.535Z,99667.38
2023-07-31T01:46:44.030Z,99662.13
2023-07-31T01:49:11.546Z,99663.06
2023-07-31T01:51:39.112Z,99660.38
2023-07-31T01:54:06.712Z,99664.81
2023-07-31T01:56:34.038Z,99670.19
2023-07-31T01:59:01.453Z,99670.22
2023-07-31T02:01:28.937Z,99660.44
2023-07-31T02:03:56.365Z,99664.00
2023-07-31T02:06:23.950Z,99669.41
2023-07-31T02:08:51.206Z,99672.13
2023-07-31T02:11:19.351Z,99657.94
2023-07-31T02:13:46.589Z,99663.28
2023-07-31T02:16:13.855Z,99665.94
2023-07-31T02:18:41.167Z,99660.59
2023-07-31T02:21:08.479Z,99657.03
2023-07-31T02:23:35.724Z,99662.41
2023-07-31T02:26:03.205Z,99655.31
2023-07-31T02:28:31.366Z,99658.84
2023-07-31T02:30:58.956Z,99659.75
2023-07-31T02:33:26.760Z,99666.03
2023-07-31T02:35:54.373Z,99658.91
2023-07-31T02:38:23.573Z,99655.34
2023-07-31T02:40:50.888Z,99663.34
2023-07-31T02:43:18.232Z,99653.56
2023-07-31T02:45:45.583Z,99652.69
2023-07-31T02:48:12.994Z,99644.72
2023-07-31T02:50:40.369Z,99651.81
2023-07-31T02:53:07.982Z,99645.56
2023-07-31T02:55:35.311Z,99648.25
2023-07-31T02:58:03.211Z,99652.75
2023-07-31T03:00:30.609Z,99644.75
2023-07-31T03:02:57.995Z,99653.59
2023-07-31T03:05:26.328Z,99653.63
2023-07-31T03:07:53.634Z,99655.44
2023-07-31T03:10:20.909Z,99659.91
2023-07-31T03:12:49.283Z,99656.38
2023-07-31T03:15:16.708Z,99649.28
2023-07-31T03:17:44.029Z,99654.59
2023-07-31T03:20:12.202Z,99649.28
2023-07-31T03:22:39.338Z,99653.69
2023-07-31T03:25:07.598Z,99646.59
2023-07-31T03:27:34.911Z,99645.69
2023-07-31T03:30:02.160Z,99651.91
2023-07-31T03:32:30.927Z,99648.34
2023-07-31T03:34:59.380Z,99651.94
2023-07-31T03:37:27.315Z,99651.94
2023-07-31T03:39:54.542Z,99650.16
2023-07-31T03:42:21.887Z,99647.53
2023-07-31T03:44:51.857Z,99659.06
2023-07-31T03:47:19.135Z,99651.97
2023-07-31T03:49:46.385Z,99652.91
2023-07-31T03:52:13.643Z,99652.00
2023-07-31T03:54:40.880Z,99657.34
2023-07-31T03:57:08.330Z,99649.34
2023-07-31T03:59:35.533Z,99656.44
2023-07-31T04:02:02.900Z,99648.44
2023-07-31T04:04:30.390Z,99665.31
2023-07-31T04:06:57.744Z,99654.69
2023-07-31T04:09:25.668Z,99661.78
2023-07-31T04:11:52.888Z,99662.69
2023-07-31T04:14:20.180Z,99668.00
2023-07-31T04:16:47.441Z,99669.75
2023-07-31T04:19:17.842Z,99664.44
2023-07-31T04:21:45.280Z,99663.56
2023-07-31T04:24:13.265Z,99658.22
2023-07-31T04:26:40.640Z,99661.75
2023-07-31T04:29:08.315Z,99660.88
2023-07-31T04:31:38.680Z,99659.03
2023-07-31T04:34:06.998Z,99660.84
2023-07-31T04:36:35.962Z,99667.03
2023-07-31T04:39:03.688Z,99666.16
2023-07-31T04:41:31.117Z,99662.56
2023-07-31T04:43:58.446Z,99666.97
2023-07-31T04:46:25.840Z,99671.44
2023-07-31T04:48:53.503Z,99672.28
2023-07-31T04:51:22.233Z,99676.78
2023-07-31T04:53:49.625Z,99684.75
2023-07-31T04:56:17.615Z,99688.22
2023-07-31T04:58:44.806Z,99690.00
2023-07-31T05:01:12.071Z,99698.84
2023-07-31T05:03:39.484Z,99697.09
2023-07-31T05:06:06.766Z,99705.06
2023-07-31T05:08:34.594Z,99705.03
2023-07-31T05:11:02.030Z,99706.78
2023-07-31T05:13:29.345Z,99712.09
2023-07-31T05:15:56.569Z,99704.94
2023-07-31T05:18:23.955Z,99717.34
2023-07-31T05:20:51.192Z,99719.13
2023-07-31T05:23:18.398Z,99727.97
2023-07-31T05:25:48.174Z,99724.44
2023-07-31T05:28:15.557Z,99733.31
2023-07-31T05:30:42.971Z,99736.88
2023-07-31T05:33:11.546Z,99735.09
2023-07-31T05:35:40.437Z,99736.84
2023-07-31T05:38:08.413Z,99730.56
2023-07-31T05:40:35.719Z,99727.03
2023-07-31T05:43:02.963Z,99726.09
2023-07-31T05:45:30.230Z,99733.09
2023-07-31T05:47:57.625Z,99733.03
2023-07-31T05:50:25.072Z,99723.22
2023-07-31T05:52:52.726Z,99731.16
2023-07-31T05:55:20.199Z,99724.88
2023-07-31T05:57:47.627Z,99729.25
2023-07-31T06:00:15.486Z,99725.66
2023-07-31T06:02:42.911Z,99726.56
2023-07-31T06:05:10.431Z,99722.91
2023-07-31T06:07:37.678Z,99727.22
2023-07-31T06:10:06.768Z,99733.34
2023-07-31T06:12:36.617Z,99738.63
2023-07-31T06:15:06.178Z,99738.66
2023-07-31T06:17:33.622Z,99735.00
2023-07-31T06:20:00.905Z,99742.03
2023-07-31T06:22:28.103Z,99739.31
2023-07-31T06:24:55.493Z,99743.78
2023-07-31T06:27:22.840Z,99747.34
2023-07-31T06:29:50.133Z,99745.66
2023-07-31T06:32:17.884Z,99756.38
2023-07-31T06:34:45.072Z,99763.47
2023-07-31T06:37:12.560Z,99766.09
2023-07-31T06:39:39.832Z,99760.69
2023-07-31T06:42:07.457Z,99760.56
2023-07-31T06:44:35.565Z,99746.28
2023-07-31T06:47:02.954Z,99745.44
2023-07-31T06:49:30.643Z,99760.63
2023-07-31T06:51:57.900Z,99757.88
2023-07-31T06:54:25.143Z,99750.66
2023-07-31T06:56:52.398Z,99753.16
2023-07-31T06:59:19.713Z,99754.75
2023-07-31T07:01:46.977Z,99747.50
2023-07-31T07:04:15.683Z,99752.81
2023-07-31T07:06:43.514Z,99746.47
2023-07-31T07:09:11.115Z,99748.09
2023-07-31T07:11:39.700Z,99753.31
2023-07-31T07:14:06.934Z,99748.00
2023-07-31T07:16:34.358Z,99744.59
2023-07-31T07:19:04.933Z,99744.69
2023-07-31T07:21:32.909Z,99734.81
2023-07-31T07:24:00.297Z,99740.13
2023-07-31T07:26:27.516Z,99745.19
2023-07-31T07:28:54.989Z,99743.03
2023-07-31T07:31:22.345Z,99729.22
2023-07-31T07:33:49.590Z,99739.69
2023-07-31T07:36:16.826Z,99738.84
2023-07-31T07:38:44.039Z,99749.56
2023-07-31T07:41:11.262Z,99746.91
2023-07-31T07:43:38.767Z,99754.84
2023-07-31T07:46:06.508Z,99749.31
2023-07-31T07:48:33.838Z,99747.47
2023-07-31T07:51:01.060Z,99738.28
2023-07-31T07:53:28.356Z,99743.09
2023-07-31T07:55:55.641Z,99742.94
2023-07-31T07:58:23.108Z,99740.78
2023-07-31T08:00:53.732Z,99741.88
2023-07-31T08:03:21.331Z,99743.78
2023-07-31T08:05:48.613Z,99738.03
2023-07-31T08:08:20.077Z,99733.94
2023-07-31T08:10:47.397Z,99739.22
2023-07-31T08:13:14.955Z,99741.66
2023-07-31T08:15:43.902Z,99741.28
2023-07-31T08:18:12.893Z,99750.28
2023-07-31T08:20:40.304Z,99749.75
2023-07-31T08:23:07.670Z,99741.72
2023-07-31T08:25:37.185Z,99743.53
2023-07-31T08:28:06.197Z,99741.25
2023-07-31T08:30:34.954Z,99742.94
2023-07-31T08:33:02.804Z,99747.03
2023-07-31T08:35:30.378Z,99735.25
2023-07-31T08:37:57.778Z,99725.72
2023-07-31T08:40:25.373Z,99732.13
2023-07-31T08:42:57.690Z,99725.81
2023-07-31T08:45:25.176Z,99729.78
2023-07-31T08:47:53.516Z,99716.94
2023-07-31T08:50:22.438Z,99714.69
2023-07-31T08:52:52.912Z,99716.34
2023-07-31T08:55:25.394Z,99713.63
2023-07-31T08:57:56.691Z,99717.34
2023-07-31T09:00:26.497Z,99711.88
2023-07-31T09:03:18.583Z,99717.59
2023-07-31T09:05:48.203Z,99714.75
2023-07-31T09:08:21.501Z,99718.31
2023-07-31T09:10:52.849Z,99717.56
2023-07-31T09:13:20.206Z,99712.88
2023-07-31T09:15:48.529Z,99720.41
2023-07-31T09:18:19.708Z,99717.91
2023-07-31T09:20:47.205Z,99717.25
2023-07-31T09:23:16.277Z,99722.66
2023-07-31T09:25:47.660Z,99717.81
2023-07-31T09:28:15.321Z,99717.44
2023-07-31T09:31:00.900Z,99721.34
2023-07-31T09:33:28.131Z,99727.16
2023-07-31T09:35:55.631Z,99727.38
2023-07-31T09:38:22.917Z,99722.28
2023-07-31T09:40:50.807Z,99733.28
2023-07-31T09:43:20.608Z,99727.94
2023-07-31T09:45:48.743Z,99715.16
2023-07-31T09:48:20.480Z,99727.19
2023-07-31T09:50:51.106Z,99725.00
2023-07-31T09:53:21.005Z,99722.34
2023-07-31T09:55:48.455Z,99713.09
2023-07-31T09:58:16.031Z,99716.47
2023-07-31T10:00:43.403Z,99707.41
2023-07-31T10:03:12.366Z,99710.34
2023-07-31T10:05:49.224Z,99705.56
2023-07-31T10:08:19.415Z,99701.06
2023-07-31T10:10:47.825Z,99699.50
2023-07-31T10:13:15.682Z,99701.97
2023-07-31T10:15:44.701Z,99700.91
2023-07-31T10:18:13.022Z,99711.09
2023-07-31T10:20:41.428Z,99708.78
2023-07-31T10:23:09.519Z,99702.53
2023-07-31T10:25:38.716Z,99703.09
2023-07-31T10:31:20.801Z,99695.53
2023-07-31T10:33:49.322Z,99686.38
2023-07-31T10:36:21.302Z,99690.63
2023-07-31T10:38:52.236Z,99680.22
2023-07-31T10:41:19.781Z,99681.69
2023-07-31T10:43:50.663Z,99681.34
2023-07-31T10:46:18.647Z,99677.19
2023-07-31T10:48:46.386Z,99680.88
2023-07-31T10:51:14.388Z,99671.97
2023-07-31T10:53:42.857Z,99669.81
2023-07-31T10:56:19.701Z,99675.09
2023-07-31T10:58:50.009Z,99669.53
2023-07-31T11:01:17.644Z,99671.41
2023-07-31T11:03:53.582Z,99663.88
2023-07-31T11:06:21.485Z,99667.84
2023-07-31T11:08:52.263Z,99671.75
2023-07-31T11:11:21.945Z,99664.84
2023-07-31T11:13:54.910Z,99669.25
2023-07-31T11:16:27.107Z,99670.47
2023-07-31T11:18:57.172Z,99666.22
2023-07-31T11:21:27.076Z,99664.09
2023-07-31T11:24:01.814Z,99659.44
2023-07-31T11:26:30.198Z,99655.16
2023-07-31T11:28:57.958Z,99645.91
2023-07-31T11:31:26.107Z,99650.75
2023-07-31T11:34:08.908Z,99638.41
2023-07-31T11:36:36.357Z,99646.59
2023-07-31T11:39:12.001Z,99635.09
2023-07-31T11:41:42.848Z,99645.94
2023-07-31T11:44:25.558Z,99637.41
2023-07-31T11:47:02.357Z,99638.16
2023-07-31T11:49:30.923Z,99624.28
2023-07-31T11:51:58.316Z,99622.22
2023-07-31T11:54:25.876Z,99622.66
2023-07-31T11:56:53.555Z,99622.09
2023-07-31T11:59:21.420Z,99613.75
2023-07-31T12:01:51.347Z,99605.72
2023-07-31T12:04:19.088Z,99610.91
2023-07-31T12:06:46.527Z,99611.59
2023-07-31T12:09:16.909Z,99598.06
2023-07-31T12:11:48.745Z,99592.72
2023-07-31T12:14:26.620Z,99585.94
2023-07-31T12:17:05.540Z,99583.09
2023-07-31T12:19:33.244Z,99578.22
2023-07-31T12:22:01.528Z,99577.94
2023-07-31T12:24:29.736Z,99584.53
2023-07-31T12:26:57.305Z,99578.03
2023-07-31T12:29:25.210Z,99577.47
2023-07-31T12:31:52.833Z,99568.19
2023-07-31T12:34:22.394Z,99568.34
2023-07-31T12:36:50.263Z,99561.31
2023-07-31T12:39:17.778Z,99561.31
2023-07-31T12:41:45.076Z,99557.03
2023-07-31T12:44:12.445Z,99554.84
2023-07-31T12:46:40.144Z,99548.75
2023-07-31T12:49:07.866Z,99539.94
2023-07-31T12:51:35.223Z,99533.66
2023-07-31T12:54:02.891Z,99521.34
2023-07-31T12:56:30.353Z,99525.00
2023-07-31T12:58:57.817Z,99523.22
2023-07-31T13:01:25.413Z,99532.53
2023-07-31T13:03:53.191Z,99524.91
2023-07-31T13:06:20.769Z,99514.72
2023-07-31T13:08:48.308Z,99507.41
2023-07-31T13:11:15.808Z,99500.16
2023-07-31T13:13:43.485Z,99505.41
2023-07-31T13:16:10.909Z,99503.56
2023-07-31T13:18:38.363Z,99509.44
2023-07-31T13:21:05.609Z,99514.72
2023-07-31T13:23:33.254Z,99507.69
2023-07-31T13:26:00.552Z,99506.38
2023-07-31T13:28:28.280Z,99510.28
2023-07-31T13:30:55.783Z,99507.41
2023-07-31T13:33:36.417Z,99507.25
2023-07-31T13:36:06.663Z,99504.25
2023-07-31T13:38:33.970Z,99502.22
2023-07-31T13:41:01.745Z,99499.13
2023-07-31T13:43:29.149Z,99507.56
2023-07-31T13:45:56.770Z,99495.66
2023-07-31T13:48:24.219Z,99502.03
2023-07-31T13:50:51.746Z,99495.19
2023-07-31T13:53:19.423Z,99493.25
2023-07-31T13:55:47.172Z,99493.75
2023-07-31T13:58:14.629Z,99490.25
2023-07-31T14:00:42.153Z,99486.34
2023-07-31T14:03:09.991Z,99487.44
2023-07-31T14:05:37.414Z,99482.44
2023-07-31T14:08:08.315Z,99475.03
2023-07-31T14:10:35.880Z,99474.97
2023-07-31T14:13:04.294Z,99473.97
2023-07-31T14:15:33.246Z,99469.09
2023-07-31T14:18:02.355Z,99464.06
2023-07-31T14:20:31.145Z,99461.59
2023-07-31T14:22:58.671Z,99468.84
2023-07-31T14:25:26.532Z,99464.41
2023-07-31T14:27:53.732Z,99460.09
2023-07-31T14:30:21.229Z,99458.78
2023-07-31T14:32:49.008Z,99464.88
2023-07-31T14:35:16.800Z,99449.81
2023-07-31T14:37:46.473Z,99443.41
2023-07-31T14:40:14.883Z,99439.50
2023-07-31T14:42:42.384Z,99433.91
2023-07-31T14:45:11.381Z,99440.03
2023-07-31T14:47:38.954Z,99438.19
2023-07-31T14:50:07.929Z,99435.00
2023-07-31T14:52:35.511Z,99438.13
2023-07-31T14:55:03.234Z,99424.25
2023-07-31T14:57:30.585Z,99425.06
2023-07-31T14:59:57.996Z,99426.31
2023-07-31T15:02:28.698Z,99423.59
2023-07-31T15:04:56.411Z,99419.41
2023-07-31T15:07:24.951Z,99413.03
2023-07-31T15:09:52.220Z,99410.78
2023-07-31T15:12:20.910Z,99408.59
2023-07-31T15:14:50.956Z,99406.88
2023-07-31T15:17:18.690Z,99400.34
2023-07-31T15:19:46.375Z,99394.69
2023-07-31T15:22:13.545Z,99396.13
2023-07-31T15:24:40.722Z,99402.56
2023-07-31T15:27:09.506Z,99404.72
2023-07-31T15:29:38.106Z,99397.34
2023-07-31T15:32:07.182Z,99405.31
2023-07-31T15:34:34.794Z,99399.28
2023-07-31T15:37:02.019Z,99394.00
2023-07-31T15:39:29.275Z,99388.44
2023-07-31T15:41:56.817Z,99389.97
2023-07-31T15:44:23.926Z,99391.06
2023-07-31T15:46:51.084Z,99381.94
2023-07-31T15:49:18.693Z,99381.28
2023-07-31T15:51:45.939Z,99375.56
2023-07-31T15:54:13.926Z,99375.53
2023-07-31T15:56:41.412Z,99375.31
2023-07-31T15:59:08.786Z,99361.94
2023-07-31T16:01:36.114Z,99355.09
2023-07-31T16:04:03.457Z,99355.00
2023-07-31T16:06:30.623Z,99347.94
2023-07-31T16:08:57.804Z,99351.09
2023-07-31T16:11:25.031Z,99336.53
2023-07-31T16:13:52.201Z,99347.16
2023-07-31T16:16:21.146Z,99341.41
2023-07-31T16:18:48.423Z,99348.22
2023-07-31T16:21:15.638Z,99330.72
2023-07-31T16:23:42.789Z,99342.75
2023-07-31T16:26:11.623Z,99336.91
2023-07-31T16:28:38.815Z,99326.97
2023-07-31T16:31:06.636Z,99341.31
2023-07-31T16:33:34.668Z,99334.09
2023-07-31T16:36:01.973Z,99344.41
2023-07-31T16:38:29.132Z,99338.22
2023-07-31T16:40:56.369Z,99340.13
2023-07-31T16:43:23.662Z,99339.47
2023-07-31T16:45:51.065Z,99338.75
2023-07-31T16:48:18.344Z,99338.50
2023-07-31T16:50:45.931Z,99329.84
2023-07-31T16:53:13.160Z,99341.09
2023-07-31T16:55:40.487Z,99331.59
2023-07-31T16:58:07.776Z,99348.06
2023-07-31T17:00:35.103Z,99344.56
2023-07-31T17:03:04.639Z,99348.50
2023-07-31T17:05:32.143Z,99344.47
2023-07-31T17:07:59.371Z,99351.25
2023-07-31T17:10:26.578Z,99351.97
2023-07-31T17:12:54.750Z,99350.88
2023-07-31T17:15:22.037Z,99348.72
2023-07-31T17:17:56.780Z,99352.72
2023-07-31T17:20:24.288Z,99351.31
2023-07-31T17:22:51.471Z,99357.88
2023-07-31T17:25:22.369Z,99356.69
2023-07-31T17:27:51.339Z,99346.97
2023-07-31T17:30:20.526Z,99345.53
2023-07-31T17:32:47.834Z,99342.44
2023-07-31T17:35:15.129Z,99347.16
2023-07-31T17:37:42.285Z,99354.78
2023-07-31T17:40:10.533Z,99358.47
2023-07-31T17:42:37.775Z,99362.03
2023-07-31T17:45:05.836Z,99363.81
2023-07-31T17:47:33.203Z,99361.00
2023-07-31T17:50:00.612Z,99366.22
2023-07-31T17:52:28.103Z,99368.84
2023-07-31T17:54:55.375Z,99369.66
2023-07-31T17:57:22.892Z,99377.69
2023-07-31T17:59:51.923Z,99374.66
2023-07-31T18:02:20.392Z,99371.09
2023-07-31T18:04:48.004Z,99369.66
2023-07-31T18:07:15.373Z,99371.28
2023-07-31T18:09:43.520Z,99372.75
2023-07-31T18:12:10.803Z,99375.88
2023-07-31T18:14:38.969Z,99369.22
2023-07-31T18:17:07.329Z,99369.03
2023-07-31T18:19:34.669Z,99378.78
2023-07-31T18:22:01.822Z,99391.56
2023-07-31T18:24:29.292Z,99387.66
2023-07-31T18:26:56.482Z,99392.34
2023-07-31T18:29:23.690Z,99389.19
2023-07-31T18:31:51.181Z,99388.56
2023-07-31T18:34:18.433Z,99394.19
2023-07-31T18:36:45.708Z,99394.84
2023-07-31T18:39:12.885Z,99400.34
2023-07-31T18:41:40.994Z,99405.25
2023-07-31T18:44:08.211Z,99405.59
2023-07-31T18:46:35.518Z,99408.41
2023-07-31T18:49:02.895Z,99408.16
2023-07-31T18:51:31.580Z,99408.34
2023-07-31T18:53:58.880Z,99413.22
2023-07-31T18:56:26.137Z,99415.06
2023-07-31T18:58:54.893Z,99417.22
2023-07-31T19:01:22.337Z,99415.66
2023-07-31T19:03:49.697Z,99415.88
2023-07-31T19:06:16.999Z,99416.88
2023-07-31T19:08:44.245Z,99418.06
2023-07-31T19:11:24.399Z,99418.41
2023-07-31T19:14:00.486Z,99424.03
2023-07-31T19:16:27.837Z,99422.59
2023-07-31T19:18:55.081Z,99418.56
2023-07-31T19:21:22.327Z,99416.09
2023-07-31T19:23:49.620Z,99412.25
2023-07-31T19:26:18.960Z,99406.19
2023-07-31T19:28:46.146Z,99417.94
2023-07-31T19:31:13.412Z,99410.91
2023-07-31T19:33:40.669Z,99415.63
2023-07-31T19:36:08.576Z,99421.19
2023-07-31T19:38:35.832Z,99417.81
2023-07-31T19:41:03.118Z,99419.53
2023-07-31T19:43:30.485Z,99423.28
2023-07-31T19:45:57.698Z,99416.13
2023-07-31T19:48:24.932Z,99414.59
2023-07-31T19:50:52.460Z,99409.53
2023-07-31T19:53:19.737Z,99415.03
2023-07-31T19:55:48.240Z,99410.59
2023-07-31T19:58:15.399Z,99408.03
2023-07-31T20:00:42.944Z,99400.81
2023-07-31T20:03:10.228Z,99400.00
2023-07-31T20:05:38.118Z,99389.53
2023-07-31T20:08:05.338Z,99388.00
2023-07-31T20:10:33.280Z,99385.47
2023-07-31T20:13:00.522Z,99384.78
2023-07-31T20:15:27.732Z,99383.19
2023-07-31T20:17:54.995Z,99378.84
2023-07-31T20:20:22.308Z,99382.50
2023-07-31T20:22:49.548Z,99378.16
2023-07-31T20:25:17.209Z,99379.97
2023-07-31T20:27:44.377Z,99385.47
2023-07-31T20:30:11.743Z,99385.44
2023-07-31T20:32:39.038Z,99379.28
2023-07-31T20:35:07.027Z,99381.16
2023-07-31T20:37:34.275Z,99379.53
2023-07-31T20:40:07.770Z,99372.50
2023-07-31T20:42:35.074Z,99379.75
2023-07-31T20:45:02.708Z,99380.78
2023-07-31T20:47:31.049Z,99377.28
2023-07-31T20:49:58.311Z,99375.50
2023-07-31T20:52:25.502Z,99386.28
2023-07-31T20:54:53.049Z,99382.81
2023-07-31T20:57:20.270Z,99372.16
2023-07-31T20:59:47.429Z,99370.50
2023-07-31T21:02:14.744Z,99367.91
2023-07-31T21:04:42.018Z,99370.72
2023-07-31T21:07:11.803Z,99365.44
2023-07-31T21:09:39.015Z,99371.00
2023-07-31T21:12:07.384Z,99375.47
2023-07-31T21:14:34.568Z,99378.25
2023-07-31T21:17:01.760Z,99382.81
2023-07-31T21:19:29.016Z,99386.38
2023-07-31T21:21:56.339Z,99380.13
2023-07-31T21:24:23.570Z,99371.16
2023-07-31T21:26:50.852Z,99368.50
2023-07-31T21:29:18.133Z,99368.59
2023-07-31T21:31:45.346Z,99370.38
2023-07-31T21:34:12.563Z,99375.00
2023-07-31T21:36:39.931Z,99371.44
2023-07-31T21:39:07.339Z,99373.38
2023-07-31T21:41:34.610Z,99376.00
2023-07-31T21:44:01.814Z,99368.09
2023-07-31T21:46:29.357Z,99355.75
2023-07-31T21:48:56.680Z,99368.22
2023-07-31T21:51:24.026Z,99368.19
2023-07-31T21:53:51.171Z,99367.19
2023-07-31T21:56:18.410Z,99370.91
2023-07-31T21:58:45.600Z,99357.50
2023-07-31T22:01:12.905Z,99359.28
2023-07-31T22:03:40.995Z,99364.78
2023-07-31T22:06:08.051Z,99362.19
2023-07-31T22:08:35.232Z,99353.25
2023-07-31T22:11:02.495Z,99353.38
2023-07-31T22:13:29.801Z,99345.53
2023-07-31T22:15:57.133Z,99350.81
2023-07-31T22:18:24.359Z,99340.09
2023-07-31T22:20:52.281Z,99348.00
2023-07-31T22:23:19.856Z,99337.31
2023-07-31T22:25:47.041Z,99336.44
2023-07-31T22:28:20.852Z,99332.06
2023-07-31T22:30:49.476Z,99334.00
2023-07-31T22:33:16.767Z,99326.13
2023-07-31T22:35:44.056Z,99333.31
2023-07-31T22:38:11.226Z,99329.72
2023-07-31T22:40:38.417Z,99336.75
2023-07-31T22:43:05.621Z,99331.41
2023-07-31T22:45:32.825Z,99325.34
2023-07-31T22:48:00.117Z,99322.69
2023-07-31T22:50:27.435Z,99315.47
2023-07-31T22:52:55.516Z,99314.47
2023-07-31T22:55:22.728Z,99318.94
2023-07-31T22:57:52.128Z,99320.00
2023-07-31T23:00:19.373Z,99322.78
2023-07-31T23:02:46.749Z,99312.13
2023-07-31T23:05:13.995Z,99311.91
2023-07-31T23:07:41.248Z,99306.63
2023-07-31T23:10:09.321Z,99299.34
2023-07-31T23:12:36.525Z,99296.81
2023-07-31T23:15:04.306Z,99291.44
2023-07-31T23:17:31.649Z,99287.94
2023-07-31T23:19:58.962Z,99280.09
2023-07-31T23:22:26.159Z,99272.19
2023-07-31T23:24:54.031Z,99264.22
2023-07-31T23:27:21.153Z,99260.63
2023-07-31T23:29:48.328Z,99257.00
2023-07-31T23:32:16.624Z,99255.22
2023-07-31T23:34:43.955Z,99266.97
2023-07-31T23:37:11.123Z,99271.53
2023-07-31T23:39:38.411Z,99269.72
2023-07-31T23:42:05.969Z,99263.56
2023-07-31T23:44:35.987Z,99256.50
2023-07-31T23:47:03.279Z,99256.50
2023-07-31T23:49:30.486Z,99258.31
2023-07-31T23:51:57.779Z,99259.97
2023-07-31T23:54:24.969Z,99255.53
2023-07-31T23:56:52.284Z,99248.56
2023-07-31T23:59:19.623Z,99248.44
